CheckWX is a tool to help pilots better visualize weather data.  It is not intended as a substitute for an official pre-flight weather briefing.

02:11:45 UTC

KTOL METAR
Toledo Express Airport
Toledo, Ohio, USA
Current

8 mins ago

KTOL 180204Z 35008KT 1 1/2SM -SN BR SCT011 SCT018 OVC035 M04/M06 A2984 RMK AO2 P0001 T10391061
Observed
Feb-18 @ 02:04 UTC
Wind
  • 350° at 8 KTS
Visibility
1 1/2 SM
Flight Rules
IFR
Conditions
Light Snow, Mist
Cloud Levels
  • Scattered at 1,100' AGL
  • Scattered at 1,800' AGL
  • Overcast at 3,500' AGL
Temperature
-4°C / 25°F
Dewpoint
-6°C / 21°F
Humidity
86%
Altimeter
29.84" Hg
Pressure
1010.52 hPa
Current Rain
0.01"
Previous

20 mins ago

KTOL 180152Z 33008KT 1SM -SN BR BKN011 OVC018 M04/M06 A2984 RMK AO2 SLP115 P0002 T10391061 RVRNO
Observed
Feb-18 @ 01:52 UTC
Wind
  • 330° at 8 KTS
Visibility
1 SM
Flight Rules
IFR
Conditions
Light Snow, Mist
Cloud Levels
  • Broken at 1,100' AGL
  • Overcast at 1,800' AGL
Temperature
-4°C / 25°F
Dewpoint
-6°C / 21°F
Humidity
86%
Altimeter
29.84" Hg
Pressure
1011.5 hPa
Current Rain
0.02"
Previous

37 mins ago

KTOL 180135Z 36006KT 1SM -SN BR OVC013 M04/M06 A2984 RMK AO2 P0001 T10391056 RVRNO
Observed
Feb-18 @ 01:35 UTC
Wind
  • 360° at 6 KTS
Visibility
1 SM
Flight Rules
IFR
Conditions
Light Snow, Mist
Cloud Levels
  • Overcast at 1,300' AGL
Temperature
-4°C / 25°F
Dewpoint
-6°C / 21°F
Humidity
86%
Altimeter
29.84" Hg
Pressure
1010.52 hPa
Current Rain
0.01"